Flight Track Log - Related Links

Times and Time Zones

All times are in EST time to prevent confusion due to time zone crossing. See the N6184V flight status page for this flight to view local times or setup timezone preferences in your user account.

Time Position Orientation Groundspeed Altitude Reporting Facility
EST Latitude Longitude Course Direction KTS MPH feet Rate Location/Type
Wed 09:40:04 AM 28.3000 -81.4333 270° West 78 90 400  Level Orlando TRACON
Wed 09:40:28 AM 28.3000 -81.4500 270° West 72 83 700 786 Climbing Orlando TRACON
Wed 09:41:28 AM 28.3000 -81.4833 270° West 92 106 1,500 750 Climbing Orlando TRACON
Wed 09:42:28 AM 28.3000 -81.5000 270° West 83 96 2,200 650 Climbing Orlando TRACON
Wed 09:43:28 AM 28.2833 -81.5333 240° Southwest 85 98 2,800 400 Climbing Orlando TRACON
Wed 09:44:28 AM 28.3000 -81.5500 319° Northwest 83 96 3,000 149 Climbing Orlando TRACON
Wed 09:45:29 AM 28.3000 -81.5833 270° West 85 98 3,100  Climbing Orlando TRACON
Wed 09:46:28 AM 28.3000 -81.6000 270° West 84 97 3,000 -50 Descending Orlando TRACON
Wed 09:47:29 AM 28.3000 -81.6333 270° West 108 124 3,000  Level Orlando TRACON
Wed 09:48:29 AM 28.2833 -81.6500 221° Southwest 112 129 3,000 45 Level Orlando TRACON
Wed 09:49:41 AM 28.2667 -81.6167 120° Southeast 87 100 3,100  Climbing Orlando TRACON
Wed 09:50:29 AM 28.2833 -81.6167 360° North 78 90 3,000 -50 Descending Orlando TRACON
Wed 09:51:41 AM 28.3167 -81.6000 24° Northeast 88 101 3,000 45 Level Orlando TRACON
Wed 09:52:41 AM 28.2833 -81.5833 156° South 120 138 3,100  Climbing Orlando TRACON
Wed 09:53:41 AM 28.2667 -81.6000 221° Southwest 113 130 3,000 -53 Descending Orlando TRACON
Wed 09:54:35 AM 28.2833 -81.6167 319° Northwest 74 85 3,000  Level Orlando TRACON
Wed 09:55:35 AM 28.3000 -81.6000 41° Northeast 81 93 3,000  Level Orlando TRACON
Wed 09:56:35 AM 28.3167 -81.6000 360° North 90 104 3,000  Level Orlando TRACON
Wed 09:57:35 AM 28.2833 -81.6000 180° South 114 131 3,000  Level Orlando TRACON
Wed 09:58:23 AM 28.2667 -81.6167 221° Southwest 109 125 3,000  Level Orlando TRACON
Wed 09:59:29 AM 28.2833 -81.6167 360° North 84 97 3,000  Level Orlando TRACON
Wed 10:00:23 AM 28.3000 -81.6167 360° North 83 96 3,000  Level Orlando TRACON
Wed 10:01:29 AM 28.3000 -81.5833 90° East 104 120 3,000  Level Orlando TRACON
Wed 10:02:29 AM 28.2833 -81.6000 221° Southwest 113 130 3,000  Level Orlando TRACON
Wed 10:03:29 AM 28.2833 -81.6167 270° West 88 101 3,000  Level Orlando TRACON
Wed 10:04:29 AM 28.3000 -81.6000 41° Northeast 81 93 3,000  Level Orlando TRACON
Wed 10:05:23 AM 28.3000 -81.5833 90° East 107 123 3,000  Level Orlando TRACON
Wed 10:06:23 AM 28.2833 -81.6000 221° Southwest 112 129 3,000  Level Orlando TRACON
Wed 10:07:23 AM 28.2833 -81.6333 270° West 92 106 3,000  Level Orlando TRACON
Wed 10:08:23 AM 28.3000 -81.6167 41° Northeast 78 90 3,000  Level Orlando TRACON
Wed 10:09:23 AM 28.3167 -81.6000 41° Northeast 95 109 3,000  Level Orlando TRACON
Wed 10:10:29 AM 28.2833 -81.6000 180° South 115 132 3,000  Level Orlando TRACON
Wed 10:11:30 AM 28.2833 -81.6167 270° West 85 98 3,000  Level Orlando TRACON
Wed 10:12:35 AM 28.3167 -81.6000 24° Northeast 80 92 3,000  Level Orlando TRACON
Wed 10:13:30 AM 28.3000 -81.6000 180° South 114 131 3,000  Level Orlando TRACON
Wed 10:14:42 AM 28.2667 -81.6167 204° Southwest 105 121 3,000  Level Orlando TRACON
Wed 10:15:36 AM 28.2833 -81.6167 360° North 82 94 3,000  Level Orlando TRACON
Wed 10:16:36 AM 28.3167 -81.6000 24° Northeast 83 96 3,000  Level Orlando TRACON
Wed 10:17:36 AM 28.3000 -81.5833 139° Southeast 119 137 3,000  Level Orlando TRACON
Wed 10:18:30 AM 28.2833 -81.6000 221° Southwest 110 127 3,000  Level Orlando TRACON
Wed 10:19:36 AM 28.2833 -81.6167 270° West 91 105 3,000  Level Orlando TRACON
Wed 10:20:30 AM 28.3000 -81.6167 360° North 86 99 3,000  Level Orlando TRACON
Wed 10:21:42 AM 28.3000 -81.5833 90° East 109 125 3,000  Level Orlando TRACON
Wed 10:22:42 AM 28.2833 -81.6000 221° Southwest 107 123 3,000  Level Orlando TRACON
Wed 10:23:30 AM 28.2667 -81.6333 240° Southwest 98 113 3,000  Level Orlando TRACON
Wed 10:24:36 AM 28.3000 -81.6333 360° North 76 87 3,000  Level Orlando TRACON
Wed 10:25:30 AM 28.3000 -81.6167 90° East 87 100 3,000  Level Orlando TRACON
Wed 10:26:30 AM 28.3000 -81.5833 90° East 113 130 3,000 -143 Level Orlando TRACON
Wed 10:27:36 AM 28.2833 -81.6000 221° Southwest 117 135 2,700 -286 Descending Orlando TRACON
Wed 10:28:36 AM 28.2500 -81.6333 221° Southwest 116 133 2,400 -300 Descending Orlando TRACON
Wed 10:29:36 AM 28.2167 -81.6500 204° Southwest 113 130 2,100  Descending Orlando TRACON
Wed 10:30:36 AM 28.2000 -81.6667 221° Southwest 106 122 2,400 100 Climbing Orlando TRACON
Wed 10:31:36 AM 28.1667 -81.6667 180° South 112 129 2,300 -104 Descending Orlando TRACON
Wed 10:32:31 AM 28.1667 -81.6333 90° East 94 108 2,200 -52 Descending Orlando TRACON
Wed 10:33:31 AM 28.1500 -81.6167 139° Southeast 95 109 2,200  Level Orlando TRACON
Wed 10:34:36 AM 28.1333 -81.5833 120° Southeast 100 115 2,200  Level Orlando TRACON
Wed 10:35:37 AM 28.1167 -81.5667 139° Southeast 97 112 2,200  Level Orlando TRACON
Wed 10:36:31 AM 28.1000 -81.5333 120° Southeast 96 110 2,200  Level Orlando TRACON
Wed 10:37:31 AM 28.1000 -81.5167 90° East 85 98 2,200  Level Orlando TRACON
Wed 10:38:31 AM 28.1333 -81.5000 24° Northeast 71 82 2,200  Level Orlando TRACON
Wed 10:39:37 AM 28.1500 -81.5000 360° North 76 87 2,200  Level Orlando TRACON
Wed 10:40:43 AM 28.1667 -81.4833 41° Northeast 76 87 2,200  Level Orlando TRACON
Wed 10:41:31 AM 28.1833 -81.4833 360° North 75 86 2,200  Level Orlando TRACON
Wed 10:42:37 AM 28.2000 -81.4667 41° Northeast 73 84 2,200 -150 Level Orlando TRACON
Wed 10:43:31 AM 28.2167 -81.4667 360° North 75 86 1,900 -550 Descending Orlando TRACON
Wed 10:44:37 AM 28.2500 -81.4500 24° Northeast 71 82 1,100 -571 Descending Orlando TRACON
Wed 10:45:37 AM 28.2667 -81.4500 360° North 78 90 700 200 Descending Orlando TRACON
Wed 10:46:37 AM 28.2833 -81.4667 319° Northwest 86 99 1,500 684 Climbing Orlando TRACON
Wed 10:47:31 AM 28.2667 -81.4833 221° Southwest 102 117 2,000 238 Climbing Orlando TRACON
Wed 10:48:43 AM 28.2333 -81.5000 204° Southwest 125 144 2,000  Level Orlando TRACON
Wed 10:49:31 AM 28.2000 -81.4833 156° South 112 129 2,000  Level Orlando TRACON
Wed 10:50:31 AM 28.1833 -81.4667 139° Southeast 109 125 2,000  Level Orlando TRACON
Wed 10:51:31 AM 28.1500 -81.4500 156° South 112 129 2,000  Level Orlando TRACON
Wed 10:52:31 AM 28.1167 -81.4333 156° South 113 130 2,000  Level Orlando TRACON
Wed 10:53:37 AM 28.1000 -81.4167 139° Southeast 112 129 2,000  Level Orlando TRACON
Wed 10:54:43 AM 28.0667 -81.4000 156° South 114 131 2,000  Level Orlando TRACON
Wed 10:55:32 AM 28.0667 -81.3833 90° East 82 94 2,000  Level Orlando TRACON
Wed 10:56:37 AM 28.0833 -81.3667 41° Northeast 81 93 2,000  Level Orlando TRACON
Wed 10:57:31 AM 28.1000 -81.3500 41° Northeast 80 92 2,000  Level Orlando TRACON
Wed 10:58:32 AM 28.1167 -81.3333 41° Northeast 80 92 2,000 -149 Level Orlando TRACON
Wed 10:59:32 AM 28.1333 -81.3333 360° North 92 106 1,700 -158 Descending Orlando TRACON
Wed 11:00:26 AM 28.1500 -81.3333 360° North 71 82 1,700  Level Orlando TRACON
Wed 11:01:31 AM 28.1667 -81.3500 319° Northwest 78 90 1,700  Level Orlando TRACON
Wed 11:02:37 AM 28.2000 -81.3667 336° Northwest 78 90 1,700  Level Orlando TRACON
Wed 11:03:31 AM 28.2167 -81.3833 319° Northwest 80 92 1,700 -330 Level Orlando TRACON
Wed 11:04:26 AM 28.2333 -81.4000 319° Northwest 68 78 1,100 -626 Descending Orlando TRACON
Wed 11:05:26 AM 28.2500 -81.4000 360° North 85 98 500 -300 Descending Orlando TRACON
Wed 11:06:26 AM 28.2667 -81.4167 319° Northwest 79 91 500 -34 Level Orlando TRACON
Wed 11:08:20 AM 28.3000 -81.4333 336° Northwest 80 92 400 303 Descending Orlando TRACON
Wed 11:09:44 AM 28.3000 -81.4833 270° West 94 108 1,500 708 Climbing Orlando TRACON
Wed 11:10:44 AM 28.2667 -81.4833 180° South 105 121 2,100 250 Climbing Orlando TRACON
Wed 11:11:44 AM 28.2333 -81.4667 156° South 109 125 2,000 -50 Descending Orlando TRACON
Wed 11:12:44 AM 28.2167 -81.4667 180° South 112 129 2,000  Level Orlando TRACON
Wed 11:13:38 AM 28.1833 -81.4500 156° South 114 131 2,000  Level Orlando TRACON
Wed 11:14:38 AM 28.1500 -81.4333 156° South 112 129 2,000  Level Orlando TRACON
Wed 11:15:38 AM 28.1167 -81.4333 180° South 110 127 2,000  Level Orlando TRACON
Wed 11:16:38 AM 28.1000 -81.4167 139° Southeast 112 129 2,000  Level Orlando TRACON
Wed 11:17:38 AM 28.0667 -81.4000 156° South 102 117 2,000  Level Orlando TRACON
Wed 11:18:39 AM 28.0833 -81.3833 41° Northeast 77 89 2,000 -50 Level Orlando TRACON
Wed 11:19:38 AM 28.1000 -81.3667 41° Northeast 81 93 1,900  Descending Orlando TRACON
Wed 11:20:38 AM 28.1167 -81.3500 41° Northeast 82 94 2,000 50 Climbing Orlando TRACON
Wed 11:21:38 AM 28.1333 -81.3333 41° Northeast 79 91 2,000 -150 Level Orlando TRACON
Wed 11:22:38 AM 28.1500 -81.3333 360° North 84 97 1,700 -150 Descending Orlando TRACON
Wed 11:23:38 AM 28.1667 -81.3500 319° Northwest 81 93 1,700  Level Orlando TRACON
Wed 11:24:44 AM 28.1833 -81.3667 319° Northwest 79 91 1,700  Level Orlando TRACON
Wed 11:25:44 AM 28.2000 -81.3833 319° Northwest 80 92 1,700 -100 Level Orlando TRACON
Wed 11:26:44 AM 28.2167 -81.3833 360° North 77 89 1,500 -300 Descending Orlando TRACON
Wed 11:27:44 AM 28.2500 -81.4000 336° Northwest 79 91 1,100 -446 Descending Orlando TRACON
Wed 11:28:45 AM 28.2667 -81.4167 319° Northwest 85 98 600 -492 Descending Orlando TRACON

Login

Don't have an account? Register now (free) for customized features, flight alerts, and more!